createdAt,value
2023-02-09T00:00:07.219Z,28.13
2023-02-09T00:03:01.884Z,28.80
2023-02-09T00:05:32.163Z,27.40
2023-02-09T00:08:00.584Z,27.07
2023-02-09T00:10:29.396Z,26.30
2023-02-09T00:13:17.535Z,29.83
2023-02-09T00:15:50.064Z,27.73
2023-02-09T00:18:18.605Z,28.07
2023-02-09T00:20:57.146Z,25.57
2023-02-09T00:23:26.192Z,27.10
2023-02-09T00:25:54.906Z,27.77
2023-02-09T00:28:23.372Z,27.73
2023-02-09T00:30:53.880Z,27.70
2023-02-09T00:33:22.422Z,27.83
2023-02-09T00:35:52.695Z,28.27
2023-02-09T00:38:22.778Z,24.70
2023-02-09T00:40:53.036Z,28.63
2023-02-09T00:43:22.511Z,29.67
2023-02-09T00:45:51.612Z,27.07
2023-02-09T00:48:20.013Z,28.87
2023-02-09T00:50:48.737Z,28.40
2023-02-09T00:53:18.959Z,27.83
2023-02-09T00:55:47.766Z,28.70
2023-02-09T00:58:16.589Z,31.33
2023-02-09T01:00:45.820Z,27.73
2023-02-09T01:03:14.413Z,26.83
2023-02-09T01:05:43.912Z,26.30
2023-02-09T01:08:13.317Z,26.23
2023-02-09T01:10:43.681Z,30.57
2023-02-09T01:13:12.297Z,24.97
2023-02-09T01:15:41.363Z,25.83
2023-02-09T01:18:09.774Z,26.10
2023-02-09T01:20:38.438Z,27.87
2023-02-09T01:23:06.912Z,26.97
2023-02-09T01:25:35.726Z,26.43
2023-02-09T01:28:05.726Z,27.90
2023-02-09T01:30:35.893Z,24.63
2023-02-09T01:33:04.379Z,25.37
2023-02-09T01:35:33.321Z,23.67
2023-02-09T01:38:01.733Z,25.63
2023-02-09T01:40:30.516Z,24.43
2023-02-09T01:42:58.909Z,24.70
2023-02-09T01:45:36.281Z,25.17
2023-02-09T01:48:05.207Z,25.93
2023-02-09T01:50:38.391Z,25.17
2023-02-09T01:53:08.129Z,24.13
2023-02-09T01:55:41.435Z,26.23
2023-02-09T01:58:15.326Z,26.90
2023-02-09T02:00:46.745Z,24.70
2023-02-09T02:03:19.686Z,24.57
2023-02-09T02:05:51.784Z,24.47
2023-02-09T02:08:26.089Z,26.50
2023-02-09T02:10:56.187Z,25.33
2023-02-09T02:13:25.024Z,24.67
2023-02-09T02:16:03.421Z,26.07
2023-02-09T02:18:47.270Z,24.90
2023-02-09T02:21:48.074Z,26.30
2023-02-09T02:24:47.933Z,31.27
2023-02-09T02:27:30.224Z,26.13
2023-02-09T02:30:22.749Z,24.83
2023-02-09T02:33:00.794Z,24.77
2023-02-09T02:35:36.855Z,23.63
2023-02-09T02:38:16.060Z,25.00
2023-02-09T02:40:55.594Z,25.57
2023-02-09T02:43:38.806Z,24.53
2023-02-09T02:46:12.442Z,26.03
2023-02-09T02:48:46.118Z,25.30
2023-02-09T02:51:21.140Z,25.70
2023-02-09T02:53:57.653Z,23.53
2023-02-09T02:56:30.294Z,22.27
2023-02-09T02:59:02.639Z,27.90
2023-02-09T03:01:35.176Z,24.93
2023-02-09T03:04:08.175Z,25.50
2023-02-09T03:06:38.604Z,26.30
2023-02-09T03:09:07.646Z,24.00
2023-02-09T03:11:39.863Z,24.60
2023-02-09T03:14:20.403Z,25.47
2023-02-09T03:16:56.133Z,23.93
2023-02-09T03:19:39.781Z,27.33
2023-02-09T03:22:14.861Z,24.60
2023-02-09T03:24:49.159Z,26.23
2023-02-09T03:27:21.950Z,27.70
2023-02-09T03:29:53.671Z,26.37
2023-02-09T03:32:22.751Z,25.13
2023-02-09T03:34:53.805Z,23.80
2023-02-09T03:37:22.230Z,21.27
2023-02-09T03:39:50.924Z,24.13
2023-02-09T03:42:19.386Z,23.57
2023-02-09T03:44:49.490Z,23.87
2023-02-09T03:47:18.303Z,26.23
2023-02-09T03:49:46.994Z,24.00
2023-02-09T03:52:18.010Z,23.47
2023-02-09T03:54:47.923Z,25.30
2023-02-09T03:57:16.299Z,23.07
2023-02-09T03:59:45.482Z,24.13
2023-02-09T04:02:14.681Z,29.27
2023-02-09T04:04:43.656Z,23.87
2023-02-09T04:07:12.465Z,25.33
2023-02-09T04:09:42.938Z,23.17
2023-02-09T04:12:11.360Z,25.87
2023-02-09T04:14:40.046Z,25.23
2023-02-09T04:17:08.459Z,26.03
2023-02-09T04:19:37.204Z,26.40
2023-02-09T04:22:05.734Z,27.23
2023-02-09T04:24:36.140Z,23.03
2023-02-09T04:27:06.248Z,22.53
2023-02-09T04:29:34.961Z,27.20
2023-02-09T04:32:03.452Z,25.03
2023-02-09T04:34:32.196Z,27.43
2023-02-09T04:37:00.564Z,27.90
2023-02-09T04:39:29.667Z,26.50
2023-02-09T04:41:58.076Z,24.83
2023-02-09T04:44:28.276Z,27.13
2023-02-09T04:46:56.692Z,26.93
2023-02-09T04:49:25.474Z,29.33
2023-02-09T04:51:53.906Z,23.93
2023-02-09T04:54:23.420Z,26.43
2023-02-09T04:57:12.078Z,26.67
2023-02-09T04:59:41.638Z,25.53
2023-02-09T05:02:10.053Z,27.77
2023-02-09T05:04:38.793Z,27.50
2023-02-09T05:07:07.208Z,24.77
2023-02-09T05:09:35.873Z,29.60
2023-02-09T05:12:04.412Z,25.50
2023-02-09T05:14:33.322Z,26.13
2023-02-09T05:17:03.273Z,25.93
2023-02-09T05:19:32.135Z,25.70
2023-02-09T05:22:00.676Z,22.47
2023-02-09T05:24:29.405Z,23.57
2023-02-09T05:26:57.876Z,27.80
2023-02-09T05:29:26.593Z,26.57
2023-02-09T05:31:55.052Z,25.13
2023-02-09T05:34:25.151Z,25.97
2023-02-09T05:36:54.082Z,24.23
2023-02-09T05:39:22.990Z,27.73
2023-02-09T05:42:11.126Z,26.50
2023-02-09T05:44:39.847Z,22.50
2023-02-09T05:47:08.295Z,26.37
2023-02-09T05:49:38.439Z,27.30
2023-02-09T05:52:07.300Z,24.53
2023-02-09T05:54:36.535Z,28.20
2023-02-09T05:57:05.390Z,28.43
2023-02-09T05:59:34.318Z,26.93
2023-02-09T06:02:03.212Z,27.83
2023-02-09T06:04:32.141Z,27.03
2023-02-09T06:07:01.957Z,27.13
2023-02-09T06:09:30.972Z,26.20
2023-02-09T06:11:59.402Z,26.73
2023-02-09T06:14:28.212Z,28.10
2023-02-09T06:16:56.997Z,27.27
2023-02-09T06:19:25.863Z,28.27
2023-02-09T06:21:54.241Z,25.73
2023-02-09T06:24:24.381Z,26.77
2023-02-09T06:26:52.856Z,24.93
2023-02-09T06:29:21.905Z,25.97
2023-02-09T06:31:50.518Z,27.57
2023-02-09T06:34:19.273Z,26.97
2023-02-09T06:36:47.746Z,27.60
2023-02-09T06:39:16.444Z,27.53
2023-02-09T06:41:46.275Z,26.87
2023-02-09T06:44:15.129Z,26.00
2023-02-09T06:46:43.686Z,26.47
2023-02-09T06:49:12.742Z,27.27
2023-02-09T06:51:41.566Z,24.27
2023-02-09T06:54:10.641Z,27.87
2023-02-09T06:56:39.123Z,28.57
2023-02-09T06:59:09.287Z,29.20
2023-02-09T07:01:37.793Z,27.13
2023-02-09T07:04:07.349Z,29.77
2023-02-09T07:06:35.772Z,26.73
2023-02-09T07:09:04.654Z,26.80
2023-02-09T07:11:33.141Z,26.30
2023-02-09T07:14:01.888Z,25.03
2023-02-09T07:16:31.756Z,24.63
2023-02-09T07:19:01.065Z,25.77
2023-02-09T07:21:29.476Z,25.77
2023-02-09T07:23:58.212Z,23.57
2023-02-09T07:26:26.599Z,27.63
2023-02-09T07:28:55.305Z,24.20
2023-02-09T07:31:23.922Z,31.50
2023-02-09T07:33:55.262Z,22.70
2023-02-09T07:36:23.694Z,22.17
2023-02-09T07:38:52.773Z,21.87
2023-02-09T07:41:25.382Z,23.13
2023-02-09T07:43:54.651Z,24.47
2023-02-09T07:46:25.533Z,24.20
2023-02-09T07:48:59.470Z,24.30
2023-02-09T07:51:29.773Z,21.70
2023-02-09T07:53:59.783Z,23.50
2023-02-09T07:56:28.844Z,22.87
2023-02-09T07:58:58.431Z,23.03
2023-02-09T08:01:27.140Z,23.13
2023-02-09T08:03:57.202Z,22.27
2023-02-09T08:06:41.545Z,21.03
2023-02-09T08:09:12.924Z,23.07
2023-02-09T08:11:46.987Z,23.17
2023-02-09T08:14:19.149Z,23.13
2023-02-09T08:16:48.962Z,21.10
2023-02-09T08:19:24.124Z,23.43
2023-02-09T08:21:52.979Z,21.90
2023-02-09T08:24:22.565Z,23.83
2023-02-09T08:26:51.025Z,22.60
2023-02-09T08:29:19.978Z,22.27
2023-02-09T08:31:48.356Z,21.40
2023-02-09T08:34:17.101Z,21.40
2023-02-09T08:36:46.965Z,22.03
2023-02-09T08:39:16.027Z,21.03
2023-02-09T08:41:46.172Z,20.93
2023-02-09T08:44:15.221Z,21.40
2023-02-09T08:46:43.725Z,22.73
2023-02-09T08:49:13.103Z,20.00
2023-02-09T08:51:41.541Z,22.57
2023-02-09T08:54:11.749Z,20.10
2023-02-09T08:56:41.280Z,21.47
2023-02-09T08:59:09.985Z,20.47
2023-02-09T09:01:40.416Z,20.50
2023-02-09T09:04:09.933Z,20.77
2023-02-09T09:06:38.339Z,18.53
2023-02-09T09:09:07.043Z,19.47
2023-02-09T09:11:37.582Z,20.97
2023-02-09T09:14:06.454Z,23.80
2023-02-09T09:16:35.198Z,21.50
2023-02-09T09:19:05.468Z,18.23
2023-02-09T09:21:34.990Z,19.13
2023-02-09T09:24:03.750Z,21.23
2023-02-09T09:26:33.926Z,19.40
2023-02-09T09:29:04.057Z,20.50
2023-02-09T09:31:33.549Z,18.67
2023-02-09T09:34:02.440Z,19.87
2023-02-09T09:36:30.860Z,20.10
2023-02-09T09:39:00.118Z,19.53
2023-02-09T09:41:32.452Z,19.30
2023-02-09T09:44:04.068Z,19.10
2023-02-09T09:46:37.656Z,19.13
2023-02-09T09:49:06.908Z,19.87
2023-02-09T09:51:40.586Z,20.80
2023-02-09T09:54:17.371Z,19.03
2023-02-09T09:56:45.838Z,20.10
2023-02-09T09:59:21.232Z,18.80
2023-02-09T10:01:52.328Z,18.50
2023-02-09T10:04:21.896Z,17.27
2023-02-09T10:06:58.469Z,19.20
2023-02-09T10:09:35.736Z,20.27
2023-02-09T10:12:17.277Z,18.63
2023-02-09T10:14:47.360Z,20.30
2023-02-09T10:17:15.805Z,18.93
2023-02-09T10:19:59.847Z,18.37
2023-02-09T10:22:28.243Z,18.37
2023-02-09T10:24:56.953Z,18.47
2023-02-09T10:27:29.217Z,17.83
2023-02-09T10:30:19.297Z,18.37
2023-02-09T10:32:48.732Z,18.50
2023-02-09T10:35:26.732Z,18.63
2023-02-09T10:38:01.694Z,17.70
2023-02-09T10:40:33.772Z,17.83
2023-02-09T10:43:03.851Z,18.73
2023-02-09T10:45:40.580Z,17.90
2023-02-09T10:48:19.004Z,18.20
2023-02-09T10:50:54.055Z,16.27
2023-02-09T10:53:25.927Z,19.80
2023-02-09T10:56:02.726Z,18.20
2023-02-09T10:58:33.451Z,17.53
2023-02-09T11:01:17.015Z,18.07
2023-02-09T11:04:00.269Z,17.90
2023-02-09T11:06:33.011Z,17.57
2023-02-09T11:09:07.209Z,16.60
2023-02-09T11:11:38.480Z,16.83
2023-02-09T11:14:12.616Z,15.30
2023-02-09T11:17:24.198Z,15.53
2023-02-09T11:20:11.720Z,15.47
2023-02-09T11:23:05.081Z,14.27
2023-02-09T11:25:38.981Z,14.73
2023-02-09T11:28:32.251Z,15.60
2023-02-09T11:31:33.918Z,16.50
2023-02-09T11:34:16.252Z,15.77
2023-02-09T11:36:55.932Z,12.80
2023-02-09T11:39:32.989Z,11.97
2023-02-09T11:42:22.225Z,12.87
2023-02-09T11:44:58.727Z,14.23
2023-02-09T11:47:31.567Z,14.47
2023-02-09T11:50:04.718Z,15.13
2023-02-09T11:52:37.816Z,15.30
2023-02-09T11:55:20.398Z,14.87
2023-02-09T11:57:51.889Z,14.93
2023-02-09T12:00:25.373Z,14.83
2023-02-09T12:03:01.510Z,16.27
2023-02-09T12:05:32.054Z,14.57
2023-02-09T12:08:20.444Z,14.87
2023-02-09T12:10:56.786Z,14.20
2023-02-09T12:13:35.058Z,13.80
2023-02-09T12:16:09.376Z,13.43
2023-02-09T12:18:41.449Z,12.53
2023-02-09T12:21:11.807Z,13.97
2023-02-09T12:23:42.050Z,13.10
2023-02-09T12:26:40.188Z,13.73
2023-02-09T12:29:25.560Z,10.90
2023-02-09T12:32:15.494Z,13.43
2023-02-09T12:34:46.997Z,10.97
2023-02-09T12:37:28.710Z,13.30
2023-02-09T12:40:32.646Z,11.40
2023-02-09T12:43:28.080Z,11.67
2023-02-09T12:46:16.411Z,12.47
2023-02-09T12:49:08.579Z,10.93
2023-02-09T12:52:11.546Z,13.77
2023-02-09T12:54:45.285Z,11.63
2023-02-09T12:57:53.592Z,12.97
2023-02-09T13:00:43.158Z,10.97
2023-02-09T13:03:15.413Z,13.00
2023-02-09T13:05:48.375Z,10.57
2023-02-09T13:08:39.110Z,11.70
2023-02-09T13:11:30.483Z,12.17
2023-02-09T13:14:03.314Z,13.17
2023-02-09T13:17:12.161Z,13.67
2023-02-09T13:20:08.350Z,12.13
2023-02-09T13:22:54.084Z,15.10
2023-02-09T13:25:29.929Z,14.17
2023-02-09T13:28:11.129Z,13.50
2023-02-09T13:30:39.652Z,13.57
2023-02-09T13:33:21.630Z,14.10
2023-02-09T13:36:03.405Z,14.33
2023-02-09T13:38:36.157Z,11.93
2023-02-09T13:41:07.438Z,13.03
2023-02-09T13:43:40.407Z,14.23
2023-02-09T13:46:23.521Z,15.43
2023-02-09T13:48:52.537Z,14.37
2023-02-09T13:51:23.601Z,13.83
2023-02-09T13:54:00.356Z,15.93
2023-02-09T13:56:29.907Z,14.03
2023-02-09T13:59:01.021Z,14.50
2023-02-09T14:01:32.476Z,13.47
2023-02-09T14:04:06.237Z,13.93
2023-02-09T14:06:41.098Z,12.47
2023-02-09T14:09:15.837Z,13.50
2023-02-09T14:11:46.990Z,12.67
2023-02-09T14:14:22.509Z,14.23
2023-02-09T14:17:24.509Z,14.37
2023-02-09T14:19:55.478Z,12.17
2023-02-09T14:22:35.584Z,13.13
2023-02-09T14:25:18.800Z,13.10
2023-02-09T14:27:49.354Z,12.63
2023-02-09T14:30:22.054Z,13.07
2023-02-09T14:32:54.150Z,13.40
2023-02-09T14:35:26.046Z,13.63
2023-02-09T14:37:56.202Z,13.57
2023-02-09T14:40:31.983Z,13.10
2023-02-09T14:43:03.178Z,12.93
2023-02-09T14:45:39.705Z,13.67
2023-02-09T14:48:18.670Z,13.93
2023-02-09T14:50:48.032Z,13.13
2023-02-09T14:53:18.493Z,12.47
2023-02-09T14:55:47.758Z,12.70
2023-02-09T14:58:22.751Z,13.27
2023-02-09T15:00:54.572Z,13.40
2023-02-09T15:03:23.430Z,12.90
2023-02-09T15:05:56.520Z,13.27
2023-02-09T15:08:28.120Z,13.37
2023-02-09T15:10:58.887Z,13.60
2023-02-09T15:13:30.394Z,13.57
2023-02-09T15:16:00.596Z,15.57
2023-02-09T15:18:29.088Z,13.40
2023-02-09T15:20:59.587Z,14.17
2023-02-09T15:23:28.072Z,14.77
2023-02-09T15:25:56.814Z,15.63
2023-02-09T15:28:30.129Z,15.17
2023-02-09T15:31:01.256Z,15.03
2023-02-09T15:33:30.520Z,14.70
2023-02-09T15:36:00.031Z,14.07
2023-02-09T15:38:29.387Z,15.53
2023-02-09T15:41:15.824Z,15.00
2023-02-09T15:44:16.501Z,16.43
2023-02-09T15:47:04.924Z,16.17
2023-02-09T15:49:33.430Z,14.37
2023-02-09T15:52:02.335Z,14.37
2023-02-09T15:54:33.917Z,14.30
2023-02-09T15:57:02.750Z,14.93
2023-02-09T15:59:31.219Z,13.40
2023-02-09T16:02:01.620Z,15.93
2023-02-09T16:04:30.264Z,15.87
2023-02-09T16:06:59.002Z,17.63
2023-02-09T16:09:29.177Z,18.27
2023-02-09T16:11:58.539Z,19.30
2023-02-09T16:14:29.132Z,16.60
2023-02-09T16:16:57.946Z,18.17
2023-02-09T16:19:27.816Z,19.17
2023-02-09T16:21:59.527Z,17.07
2023-02-09T16:24:32.695Z,19.20
2023-02-09T16:27:02.826Z,21.27
2023-02-09T16:29:31.386Z,18.63
2023-02-09T16:32:00.069Z,17.87
2023-02-09T16:34:29.975Z,26.30
2023-02-09T16:36:59.369Z,18.43
2023-02-09T16:39:28.112Z,19.93
2023-02-09T16:41:57.370Z,20.13
2023-02-09T16:44:29.302Z,18.90
2023-02-09T16:47:00.710Z,18.47
2023-02-09T16:49:38.025Z,18.97
2023-02-09T16:52:14.223Z,23.80
2023-02-09T16:54:46.704Z,24.87
2023-02-09T16:57:17.614Z,22.47
2023-02-09T16:59:46.670Z,22.27
2023-02-09T17:02:33.009Z,27.47
2023-02-09T17:05:08.881Z,26.77
2023-02-09T17:07:52.517Z,25.17
2023-02-09T17:10:25.920Z,24.73
2023-02-09T17:12:54.726Z,26.73
2023-02-09T17:15:31.163Z,29.97
2023-02-09T17:18:02.834Z,33.90
2023-02-09T17:20:38.780Z,31.57
2023-02-09T17:23:07.798Z,33.30
2023-02-09T17:25:36.207Z,34.17
2023-02-09T17:28:05.617Z,32.57
2023-02-09T17:30:35.283Z,34.30
2023-02-09T17:33:06.044Z,34.87
2023-02-09T17:36:17.455Z,33.73
2023-02-09T17:38:30.229Z,36.23
2023-02-09T17:41:01.295Z,35.63
2023-02-09T17:43:30.180Z,34.57
2023-02-09T17:45:58.956Z,33.43
2023-02-09T17:48:27.875Z,32.87
2023-02-09T17:51:00.240Z,31.63
2023-02-09T17:53:32.892Z,32.23
2023-02-09T17:56:02.558Z,30.33
2023-02-09T17:58:31.415Z,30.80
2023-02-09T18:00:59.925Z,29.77
2023-02-09T18:03:28.717Z,28.50
2023-02-09T18:06:01.585Z,28.93
2023-02-09T18:08:31.161Z,27.33
2023-02-09T18:10:59.598Z,26.60
2023-02-09T18:13:28.688Z,24.63
2023-02-09T18:15:57.329Z,23.73
2023-02-09T18:18:25.972Z,22.73
2023-02-09T18:20:54.956Z,23.53
2023-02-09T18:23:25.190Z,22.77
2023-02-09T18:25:53.624Z,22.30
2023-02-09T18:28:22.362Z,20.40
2023-02-09T18:30:50.914Z,18.93
2023-02-09T18:33:19.707Z,17.33
2023-02-09T18:35:48.537Z,17.57
2023-02-09T18:38:17.523Z,16.83
2023-02-09T18:40:47.415Z,16.63
2023-02-09T18:43:16.287Z,15.83
2023-02-09T18:45:45.429Z,17.40
2023-02-09T18:48:14.464Z,15.60
2023-02-09T18:50:43.065Z,15.70
2023-02-09T18:53:12.845Z,14.80
2023-02-09T18:55:41.403Z,14.80
2023-02-09T18:58:13.123Z,13.93
2023-02-09T19:00:41.720Z,13.87
2023-02-09T19:03:13.628Z,14.73
2023-02-09T19:05:42.517Z,14.70
2023-02-09T19:08:11.396Z,13.73
2023-02-09T19:10:40.960Z,15.60
2023-02-09T19:13:11.474Z,15.77
2023-02-09T19:15:40.958Z,15.57
2023-02-09T19:18:10.013Z,15.30
2023-02-09T19:20:38.454Z,14.40
2023-02-09T19:23:08.496Z,15.93
2023-02-09T19:25:37.813Z,14.80
2023-02-09T19:28:06.948Z,16.93
2023-02-09T19:30:36.824Z,16.73
2023-02-09T19:33:05.664Z,16.80
2023-02-09T19:35:34.513Z,15.17
2023-02-09T19:38:03.391Z,18.23
2023-02-09T19:40:36.489Z,19.30
2023-02-09T19:43:06.078Z,16.53
2023-02-09T19:45:39.350Z,17.53
2023-02-09T19:48:09.625Z,17.37
2023-02-09T19:50:38.543Z,18.47
2023-02-09T19:53:07.895Z,17.13
2023-02-09T19:55:36.559Z,17.63
2023-02-09T19:58:05.470Z,16.40
2023-02-09T20:00:33.923Z,17.67
2023-02-09T20:03:04.210Z,18.40
2023-02-09T20:05:33.355Z,18.03
2023-02-09T20:08:02.888Z,16.67
2023-02-09T20:10:31.709Z,17.20
2023-02-09T20:13:01.081Z,18.00
2023-02-09T20:15:29.619Z,17.23
2023-02-09T20:17:58.874Z,19.43
2023-02-09T20:20:29.061Z,16.90
2023-02-09T20:22:57.999Z,18.37
2023-02-09T20:25:26.553Z,20.20
2023-02-09T20:27:55.660Z,19.03
2023-02-09T20:30:24.222Z,16.60
2023-02-09T20:32:52.948Z,19.27
2023-02-09T20:35:21.708Z,17.53
2023-02-09T20:37:53.751Z,18.73
2023-02-09T20:40:22.893Z,17.93
2023-02-09T20:43:20.537Z,16.83
2023-02-09T20:46:06.295Z,17.07
2023-02-09T20:48:36.123Z,19.63
2023-02-09T20:51:05.154Z,18.70
2023-02-09T20:53:36.152Z,17.93
2023-02-09T20:56:04.911Z,19.13
2023-02-09T20:58:34.264Z,19.10
2023-02-09T21:01:02.788Z,18.70
2023-02-09T21:03:31.701Z,16.97
2023-02-09T21:06:00.180Z,17.07
2023-02-09T21:08:29.085Z,17.77
2023-02-09T21:10:59.866Z,16.60
2023-02-09T21:13:28.799Z,17.97
2023-02-09T21:15:57.612Z,17.67
2023-02-09T21:18:28.545Z,17.60
2023-02-09T21:20:57.026Z,20.50
2023-02-09T21:23:27.058Z,16.67
2023-02-09T21:26:03.214Z,17.47
2023-02-09T21:28:32.560Z,17.27
2023-02-09T21:31:01.117Z,15.37
2023-02-09T21:33:30.243Z,17.87
2023-02-09T21:35:59.810Z,16.50
2023-02-09T21:38:28.629Z,16.37
2023-02-09T21:40:57.050Z,16.37
2023-02-09T21:43:27.185Z,15.37
2023-02-09T21:45:55.748Z,17.90
2023-02-09T21:48:24.515Z,17.10
2023-02-09T21:50:53.307Z,15.83
2023-02-09T21:53:22.070Z,17.17
2023-02-09T21:55:50.509Z,15.07
2023-02-09T21:58:19.214Z,16.27
2023-02-09T22:00:57.799Z,17.13
2023-02-09T22:03:26.589Z,16.23
2023-02-09T22:05:57.267Z,14.77
2023-02-09T22:08:26.683Z,14.70
2023-02-09T22:10:55.367Z,15.07
2023-02-09T22:13:24.094Z,15.73
2023-02-09T22:15:54.125Z,15.43
2023-02-09T22:18:23.985Z,16.53
2023-02-09T22:20:52.756Z,15.40
2023-02-09T22:23:21.703Z,17.33
2023-02-09T22:25:50.154Z,17.40
2023-02-09T22:28:18.961Z,16.03
2023-02-09T22:30:47.724Z,18.10
2023-02-09T22:33:18.086Z,17.10
2023-02-09T22:35:46.708Z,16.90
2023-02-09T22:38:15.917Z,15.80
2023-02-09T22:40:44.369Z,19.60
2023-02-09T22:43:13.186Z,19.10
2023-02-09T22:45:41.696Z,16.50
2023-02-09T22:48:11.987Z,17.80
2023-02-09T22:50:41.889Z,16.37
2023-02-09T22:53:11.005Z,14.90
2023-02-09T22:55:39.425Z,16.17
2023-02-09T22:58:08.213Z,15.77
2023-02-09T23:00:36.702Z,15.83
2023-02-09T23:03:05.504Z,15.87
2023-02-09T23:05:35.197Z,17.37
2023-02-09T23:08:05.660Z,17.17
2023-02-09T23:10:34.219Z,16.83
2023-02-09T23:13:02.983Z,15.23
2023-02-09T23:15:31.625Z,17.90
2023-02-09T23:18:00.511Z,15.67
2023-02-09T23:20:29.018Z,16.77
2023-02-09T23:23:01.343Z,17.10
2023-02-09T23:25:31.216Z,17.40
2023-02-09T23:27:59.955Z,17.00
2023-02-09T23:30:28.458Z,17.13
2023-02-09T23:32:57.562Z,16.80
2023-02-09T23:35:25.990Z,15.97
2023-02-09T23:37:54.705Z,15.93
2023-02-09T23:40:23.141Z,15.70
2023-02-09T23:42:53.190Z,17.23
2023-02-09T23:45:21.683Z,16.50
2023-02-09T23:47:50.404Z,17.20
2023-02-09T23:50:19.061Z,13.90
2023-02-09T23:52:47.796Z,15.90
2023-02-09T23:55:16.352Z,16.03
2023-02-09T23:57:45.278Z,14.67
